PAQT

Nuiqsut Airport

Nuiqsut, Alaska, USA
PAQT 181738Z 1818/1918 21015KT P6SM SCT035 BKN050 BKN200 FM182100 24018KT 6SM -RA BR SCT025 BKN035 OVC050 FM190600 24015KT 6SM -RA BR BKN015 OVC025 FM190900 27012KT 6SM -RA BR BKN007 BKN015 OVC025
Issued Valid From Valid To
Jul-18 @ 17:38 UTC
(5 hours ago)
Jul-18 @ 18:00 UTC
(5 hours ago)
Jul-19 @ 18:00 UTC
(in 19 hours)
Expired Click to View Jul-18 @ 18:00 to Jul-18 @ 21:00
PAQT 181738Z 1818/1918 21015KT P6SM SCT035 BKN050 BKN200
Wind Visibility Clouds
210° at 15 knots Greater than 6 miles
  • Scattered at 3,500' AGL
  • Broken at 5,000' AGL
  • Broken at 20,000' AGL
From Jul-18 @ 21:00 to Jul-19 @ 06:00
FM182100 24018KT 6SM -RA BR SCT025 BKN035 OVC050
Wind Visibility Clouds Conditions
240° at 18 knots 6 miles
  • Scattered at 2,500' AGL
  • Broken at 3,500' AGL
  • Overcast at 5,000' AGL
  • Light Rain
  • Mist
From Jul-19 @ 06:00 to Jul-19 @ 09:00
FM190600 24015KT 6SM -RA BR BKN015 OVC025
Wind Visibility Clouds Conditions
240° at 15 knots 6 miles
  • Broken at 1,500' AGL
  • Overcast at 2,500' AGL
  • Light Rain
  • Mist
From Jul-19 @ 09:00 to Jul-19 @ 18:00
FM190900 27012KT 6SM -RA BR BKN007 BKN015 OVC025
Wind Visibility Clouds Conditions
270° at 12 knots 6 miles
  • Broken at 700' AGL
  • Broken at 1,500' AGL
  • Overcast at 2,500' AGL
  • Light Rain
  • Mist
PAQT 181738Z 1818/1918 21015KT P6SM SCT035 BKN050 BKN200 FM182100 24018KT 6SM -RA BR SCT025 BKN035 OVC050 FM190600 24015KT 6SM -RA BR BKN015 OVC025 FM190900 27012KT 6SM -RA BR BKN007 BKN015 OVC025
Issued Jul-18 @ 17:38 UTC
(5 hours ago)
Valid From Jul-18 @ 18:00 UTC
(5 hours ago)
Valid To Jul-19 @ 18:00 UTC
(in 19 hours)
Jul-18 @ 18:00 - Jul-18 @ 21:00
Wind Visibility
210° at 15 knots Greater than 6 miles
Clouds
  • Scattered at 3,500' AGL
  • Broken at 5,000' AGL
  • Broken at 20,000' AGL
From Jul-18 @ 21:00 - Jul-19 @ 06:00
Wind Visibility
240° at 18 knots 6 miles
Clouds
  • Scattered at 2,500' AGL
  • Broken at 3,500' AGL
  • Overcast at 5,000' AGL
Conditions
  • Light Rain
  • Mist
From Jul-19 @ 06:00 - Jul-19 @ 09:00
Wind Visibility
240° at 15 knots 6 miles
Clouds
  • Broken at 1,500' AGL
  • Overcast at 2,500' AGL
Conditions
  • Light Rain
  • Mist
From Jul-19 @ 09:00 - Jul-19 @ 18:00
Wind Visibility
270° at 12 knots 6 miles
Clouds
  • Broken at 700' AGL
  • Broken at 1,500' AGL
  • Overcast at 2,500' AGL
Conditions
  • Light Rain
  • Mist